Rockwall's Hourly Summary for Sunday, March 19, 2017
Hour Temp
(f)
RH
(%)
Solar Rad.
(MJ/m2)
Rainfall
(in)
Wind
(mph)
3/19/2017 12:00 AM 67 79 0 0 2.31
3/19/2017 1:00 AM 66 83 0 0 2.77
3/19/2017 2:00 AM 65 85 0 0 2.34
3/19/2017 3:00 AM 64 86 0 0 1.84
3/19/2017 4:00 AM 64 86 0 0 2.47
3/19/2017 5:00 AM 64 86 0 0 2.63
3/19/2017 6:00 AM 64 88 0 0 3.24
3/19/2017 7:00 AM 64 89 0 0 3.59
3/19/2017 8:00 AM 63 95 0.04 0 2.4
3/19/2017 9:00 AM 64 91 0.49 0 3.75
3/19/2017 10:00 AM 68 81 1.2 0 3.64
3/19/2017 11:00 AM 69 78 1.19 0 4.15
3/19/2017 12:00 PM 70 72 1.87 0 5.65
3/19/2017 1:00 PM 73 65 2.42 0 5.5
3/19/2017 2:00 PM 76 60 2.44 0 6.57
3/19/2017 3:00 PM 78 55 2.56 0 7.16
3/19/2017 4:00 PM 80 54 2 0 7.23
3/19/2017 5:00 PM 81 50 1.1 0 7.08
3/19/2017 6:00 PM 81 50 1.11 0 6.28
3/19/2017 7:00 PM 79 51 0.35 0 5.86
3/19/2017 8:00 PM 77 56 0.03 0 6.05
3/19/2017 9:00 PM 74 61 0 0 5.19
3/19/2017 10:00 PM 73 66 0 0 6.25
3/19/2017 11:00 PM 72 66 0 0 5.9
Data Summary 70 72 16.80 0.00 4.58